createdAt,value
2018-10-01T00:00:10.548Z,99.90
2018-10-01T00:02:39.183Z,99.90
2018-10-01T00:05:06.760Z,99.90
2018-10-01T00:07:34.334Z,99.90
2018-10-01T00:10:01.920Z,99.90
2018-10-01T00:12:29.504Z,99.90
2018-10-01T00:14:57.042Z,99.90
2018-10-01T00:17:24.703Z,99.90
2018-10-01T00:21:00.355Z,99.90
2018-10-01T00:23:27.939Z,99.90
2018-10-01T00:25:55.528Z,99.90
2018-10-01T00:28:23.115Z,99.90
2018-10-01T00:30:50.676Z,99.90
2018-10-01T00:33:18.236Z,99.90
2018-10-01T00:35:45.767Z,99.90
2018-10-01T00:38:13.445Z,99.90
2018-10-01T00:40:41.028Z,99.90
2018-10-01T00:43:08.594Z,99.90
2018-10-01T00:45:36.252Z,99.90
2018-10-01T00:48:03.860Z,99.90
2018-10-01T00:50:31.428Z,99.90
2018-10-01T00:53:03.190Z,99.90
2018-10-01T00:55:30.722Z,99.90
2018-10-01T00:57:58.244Z,99.90
2018-10-01T01:00:25.788Z,99.90
2018-10-01T01:02:55.323Z,99.90
2018-10-01T01:05:22.899Z,99.90
2018-10-01T01:07:50.411Z,99.90
2018-10-01T01:10:17.940Z,99.90
2018-10-01T01:12:53.696Z,99.90
2018-10-01T01:15:21.269Z,99.90
2018-10-01T01:17:48.831Z,99.90
2018-10-01T01:20:16.343Z,99.90
2018-10-01T01:22:43.890Z,99.90
2018-10-01T01:25:11.500Z,99.90
2018-10-01T01:27:39.052Z,99.90
2018-10-01T01:30:06.656Z,99.90
2018-10-01T01:32:41.740Z,99.90
2018-10-01T01:35:09.308Z,99.90
2018-10-01T01:37:36.847Z,99.90
2018-10-01T01:40:04.956Z,99.90
2018-10-01T01:42:36.452Z,99.90
2018-10-01T01:45:04.001Z,99.90
2018-10-01T01:47:31.552Z,99.90
2018-10-01T01:49:59.104Z,99.90
2018-10-01T01:52:26.681Z,99.90
2018-10-01T01:54:54.212Z,99.90
2018-10-01T01:57:21.743Z,99.90
2018-10-01T01:59:49.317Z,99.90
2018-10-01T02:02:20.744Z,99.90
2018-10-01T02:04:48.336Z,99.90
2018-10-01T02:07:15.851Z,99.90
2018-10-01T02:09:43.427Z,99.90
2018-10-01T02:12:11.083Z,99.90
2018-10-01T02:14:38.591Z,99.90
2018-10-01T02:17:06.160Z,99.90
2018-10-01T02:19:33.720Z,99.90
2018-10-01T02:22:01.303Z,99.90
2018-10-01T02:24:28.822Z,99.90
2018-10-01T02:26:56.380Z,99.90
2018-10-01T02:29:23.909Z,99.90
2018-10-01T02:31:52.444Z,99.90
2018-10-01T02:34:19.982Z,99.90
2018-10-01T02:36:47.531Z,99.90
2018-10-01T02:39:15.078Z,99.90
2018-10-01T02:41:43.756Z,99.90
2018-10-01T02:44:11.529Z,99.90
2018-10-01T02:46:39.242Z,99.90
2018-10-01T02:49:06.969Z,99.90
2018-10-01T02:51:38.920Z,99.90
2018-10-01T02:54:12.123Z,99.90
2018-10-01T02:56:39.820Z,99.90
2018-10-01T02:59:07.467Z,99.90
2018-10-01T03:01:35.220Z,99.90
2018-10-01T03:04:02.864Z,99.90
2018-10-01T03:06:30.564Z,99.90
2018-10-01T03:08:58.228Z,99.90
2018-10-01T03:11:29.716Z,99.90
2018-10-01T03:13:57.325Z,99.90
2018-10-01T03:16:24.959Z,99.90
2018-10-01T03:18:52.648Z,99.90
2018-10-01T03:21:20.385Z,99.90
2018-10-01T03:23:48.059Z,99.90
2018-10-01T03:26:15.720Z,99.90
2018-10-01T03:28:43.268Z,99.90
2018-10-01T03:31:10.840Z,99.90
2018-10-01T03:33:38.353Z,99.90
2018-10-01T03:36:05.916Z,99.90
2018-10-01T03:38:33.480Z,99.90
2018-10-01T03:41:03.064Z,99.90
2018-10-01T03:43:30.648Z,99.90
2018-10-01T03:45:58.174Z,99.90
2018-10-01T03:48:25.714Z,99.90
2018-10-01T03:50:53.227Z,99.90
2018-10-01T03:53:20.821Z,99.90
2018-10-01T03:55:48.407Z,99.90
2018-10-01T03:58:15.949Z,99.90
2018-10-01T04:00:43.530Z,99.90
2018-10-01T04:03:11.261Z,99.90
2018-10-01T04:05:38.784Z,99.90
2018-10-01T04:08:06.285Z,99.90
2018-10-01T04:10:33.862Z,99.90
2018-10-01T04:13:16.370Z,99.90
2018-10-01T04:15:43.940Z,99.90
2018-10-01T04:18:11.639Z,99.90
2018-10-01T04:20:39.187Z,99.90
2018-10-01T04:23:11.047Z,99.90
2018-10-01T04:25:38.583Z,99.90
2018-10-01T04:28:06.184Z,99.90
2018-10-01T04:30:33.727Z,99.90
2018-10-01T04:33:04.442Z,99.90
2018-10-01T04:35:31.955Z,99.90
2018-10-01T04:37:59.468Z,99.90
2018-10-01T04:40:26.996Z,99.90
2018-10-01T04:43:08.284Z,99.90
2018-10-01T04:45:35.848Z,99.90
2018-10-01T04:48:03.422Z,99.90
2018-10-01T04:50:31.315Z,99.90
2018-10-01T04:53:02.325Z,99.90
2018-10-01T04:55:29.939Z,99.90
2018-10-01T04:57:57.642Z,99.90
2018-10-01T05:00:25.169Z,99.90
2018-10-01T05:02:52.780Z,99.90
2018-10-01T05:07:53.380Z,99.90
2018-10-01T05:10:20.914Z,99.90
2018-10-01T05:19:50.494Z,99.90
2018-10-01T05:22:25.687Z,99.90
2018-10-01T05:24:53.188Z,99.90
2018-10-01T05:27:20.717Z,99.90
2018-10-01T05:29:48.232Z,99.90
2018-10-01T05:32:30.495Z,99.90
2018-10-01T05:34:58.040Z,99.90
2018-10-01T05:37:25.636Z,99.90
2018-10-01T05:39:53.249Z,99.90
2018-10-01T05:42:20.979Z,99.90
2018-10-01T05:44:48.610Z,99.90
2018-10-01T05:47:16.268Z,99.90
2018-10-01T05:49:43.942Z,99.90
2018-10-01T05:52:12.681Z,99.90
2018-10-01T05:54:40.383Z,99.90
2018-10-01T05:57:08.041Z,99.90
2018-10-01T05:59:35.695Z,99.90
2018-10-01T06:02:05.516Z,99.90
2018-10-01T06:04:33.149Z,99.90
2018-10-01T06:07:00.851Z,99.90
2018-10-01T06:09:28.660Z,99.90
2018-10-01T06:11:56.561Z,99.90
2018-10-01T06:14:24.164Z,99.90
2018-10-01T06:16:51.828Z,99.90
2018-10-01T06:19:19.548Z,99.90
2018-10-01T06:24:15.701Z,99.90
2018-10-01T06:26:43.423Z,99.90
2018-10-01T06:29:11.084Z,99.90
2018-10-01T06:31:46.851Z,99.90
2018-10-01T06:34:14.492Z,99.90
2018-10-01T06:36:42.148Z,99.90
2018-10-01T06:39:10.932Z,99.90
2018-10-01T06:41:55.739Z,99.90
2018-10-01T06:44:23.312Z,99.90
2018-10-01T06:46:51.011Z,99.90
2018-10-01T06:49:18.640Z,99.90
2018-10-01T06:51:54.184Z,99.90
2018-10-01T06:54:21.912Z,99.90
2018-10-01T06:56:49.635Z,99.90
2018-10-01T06:59:17.351Z,99.90
2018-10-01T07:01:45.036Z,99.90
2018-10-01T07:06:40.125Z,99.90
2018-10-01T07:09:08.517Z,99.90
2018-10-01T07:11:39.135Z,99.90
2018-10-01T07:14:13.139Z,99.90
2018-10-01T07:16:40.832Z,99.90
2018-10-01T07:19:08.567Z,99.90
2018-10-01T07:21:37.384Z,99.90
2018-10-01T07:24:05.016Z,99.90
2018-10-01T07:26:32.711Z,99.90
2018-10-01T07:31:29.223Z,99.90
2018-10-01T07:33:56.895Z,99.90
2018-10-01T07:36:24.651Z,99.90
2018-10-01T07:38:52.333Z,99.90
2018-10-01T07:41:27.137Z,99.90
2018-10-01T07:43:54.880Z,99.90
2018-10-01T07:46:22.663Z,99.90
2018-10-01T07:48:50.278Z,99.90
2018-10-01T07:51:18.018Z,99.90
2018-10-01T07:56:13.108Z,99.90
2018-10-01T07:58:40.820Z,99.90
2018-10-01T08:01:09.576Z,99.90
2018-10-01T08:03:37.256Z,99.90
2018-10-01T08:06:04.904Z,99.90
2018-10-01T08:08:32.663Z,99.90
2018-10-01T08:11:06.372Z,99.90
2018-10-01T08:13:34.110Z,99.90
2018-10-01T08:16:01.781Z,99.90
2018-10-01T08:18:29.467Z,99.90
2018-10-01T08:20:59.180Z,99.90
2018-10-01T08:23:26.933Z,99.90
2018-10-01T08:25:54.614Z,99.90
2018-10-01T08:28:22.284Z,99.90
2018-10-01T08:30:49.952Z,99.90
2018-10-01T08:33:17.664Z,99.90
2018-10-01T08:35:45.408Z,99.90
2018-10-01T08:38:13.171Z,99.90
2018-10-01T08:40:40.777Z,99.90
2018-10-01T08:43:08.517Z,99.90
2018-10-01T08:45:36.184Z,99.90
2018-10-01T08:48:03.861Z,99.90
2018-10-01T08:50:37.876Z,99.90
2018-10-01T08:53:48.836Z,99.90
2018-10-01T08:56:16.613Z,99.90
2018-10-01T08:58:44.228Z,99.90
2018-10-01T09:01:15.213Z,99.90
2018-10-01T09:03:42.852Z,99.90
2018-10-01T09:06:10.496Z,99.90
2018-10-01T09:08:38.255Z,99.90
2018-10-01T09:11:05.898Z,99.90
2018-10-01T09:13:33.564Z,99.90
2018-10-01T09:16:01.261Z,99.90
2018-10-01T09:18:28.971Z,99.90
2018-10-01T09:20:56.677Z,99.90
2018-10-01T09:23:24.360Z,99.90
2018-10-01T09:25:52.040Z,99.90
2018-10-01T09:28:19.702Z,99.90
2018-10-01T09:30:47.361Z,99.90
2018-10-01T09:33:15.044Z,99.90
2018-10-01T09:35:42.741Z,99.90
2018-10-01T09:38:10.353Z,99.90
2018-10-01T09:40:38.170Z,99.90
2018-10-01T09:43:11.624Z,99.90
2018-10-01T09:45:39.356Z,99.90
2018-10-01T09:48:07.091Z,99.90
2018-10-01T09:50:34.864Z,99.90
2018-10-01T09:53:02.607Z,99.90
2018-10-01T09:55:30.332Z,99.90
2018-10-01T09:57:58.148Z,99.90
2018-10-01T10:00:31.421Z,99.90
2018-10-01T10:03:00.193Z,99.90
2018-10-01T10:05:27.878Z,99.90
2018-10-01T10:07:55.520Z,99.90
2018-10-01T10:10:23.145Z,99.90
2018-10-01T10:12:51.892Z,99.90
2018-10-01T10:15:19.663Z,99.90
2018-10-01T10:17:47.481Z,99.90
2018-10-01T10:20:15.273Z,99.90
2018-10-01T10:22:44.832Z,99.90
2018-10-01T10:25:12.568Z,99.90
2018-10-01T10:27:40.244Z,99.90
2018-10-01T10:30:08.633Z,99.90
2018-10-01T10:32:53.644Z,99.90
2018-10-01T10:35:21.437Z,99.90
2018-10-01T10:37:49.075Z,99.90
2018-10-01T10:40:16.764Z,99.90
2018-10-01T10:42:57.256Z,99.90
2018-10-01T10:45:24.948Z,99.90
2018-10-01T10:47:52.637Z,99.90
2018-10-01T10:50:20.339Z,99.90
2018-10-01T10:52:52.856Z,99.90
2018-10-01T10:55:20.576Z,99.90
2018-10-01T10:57:48.264Z,99.90
2018-10-01T11:00:15.892Z,99.90
2018-10-01T11:02:47.570Z,99.90
2018-10-01T11:05:15.252Z,99.90
2018-10-01T11:07:42.947Z,99.90
2018-10-01T11:10:10.579Z,99.90
2018-10-01T11:12:38.272Z,99.90
2018-10-01T11:15:08.106Z,99.90
2018-10-01T11:17:35.717Z,99.90
2018-10-01T11:20:03.473Z,99.90
2018-10-01T11:22:32.230Z,99.90
2018-10-01T11:24:59.892Z,99.90
2018-10-01T11:27:27.573Z,99.90
2018-10-01T11:29:55.113Z,99.90
2018-10-01T11:32:22.890Z,99.90
2018-10-01T11:34:50.710Z,99.90
2018-10-01T11:37:18.357Z,99.90
2018-10-01T11:39:46.359Z,99.90
2018-10-01T11:42:13.845Z,99.90
2018-10-01T11:44:41.532Z,99.90
2018-10-01T11:47:09.277Z,99.90
2018-10-01T11:49:36.984Z,99.90
2018-10-01T11:52:04.651Z,99.90
2018-10-01T11:54:32.347Z,99.90
2018-10-01T11:57:00.062Z,99.90
2018-10-01T11:59:27.656Z,99.90
2018-10-01T12:02:07.802Z,99.90
2018-10-01T12:04:35.316Z,99.90
2018-10-01T12:07:02.879Z,99.90
2018-10-01T12:09:30.526Z,99.90
2018-10-01T12:11:58.319Z,99.90
2018-10-01T12:14:26.096Z,99.90
2018-10-01T12:16:53.813Z,99.90
2018-10-01T12:19:21.448Z,99.90
2018-10-01T12:22:00.077Z,99.90
2018-10-01T12:24:27.698Z,99.90
2018-10-01T12:26:55.368Z,99.90
2018-10-01T12:29:23.024Z,99.90
2018-10-01T12:31:51.800Z,99.90
2018-10-01T12:34:19.480Z,99.90
2018-10-01T12:36:47.168Z,99.90
2018-10-01T12:39:14.757Z,99.90
2018-10-01T12:41:42.299Z,99.90
2018-10-01T12:44:09.910Z,99.90
2018-10-01T12:46:37.427Z,99.90
2018-10-01T12:49:05.088Z,99.90
2018-10-01T12:51:42.439Z,99.90
2018-10-01T12:54:10.069Z,99.90
2018-10-01T12:56:37.763Z,99.90
2018-10-01T12:59:05.589Z,99.90
2018-10-01T13:01:36.980Z,99.90
2018-10-01T13:04:04.707Z,99.90
2018-10-01T13:06:32.390Z,99.90
2018-10-01T13:09:00.081Z,99.90
2018-10-01T13:11:44.372Z,99.90
2018-10-01T13:14:12.034Z,99.90
2018-10-01T13:16:39.792Z,99.90
2018-10-01T13:19:07.482Z,99.90
2018-10-01T13:21:37.315Z,99.90
2018-10-01T13:24:04.994Z,99.90
2018-10-01T13:26:32.643Z,99.60
2018-10-01T13:29:00.324Z,98.30
2018-10-01T13:31:29.040Z,97.60
2018-10-01T13:36:24.416Z,92.60
2018-10-01T13:38:52.150Z,89.20
2018-10-01T13:41:21.004Z,78.40
2018-10-01T13:46:16.068Z,87.20
2018-10-01T13:48:43.801Z,91.30
2018-10-01T13:51:12.525Z,93.60
2018-10-01T13:53:40.292Z,95.30
2018-10-01T13:56:07.912Z,94.70
2018-10-01T13:58:35.629Z,95.40
2018-10-01T14:01:03.325Z,96.70
2018-10-01T14:03:31.052Z,99.70
2018-10-01T14:05:58.735Z,99.50
2018-10-01T14:08:26.447Z,98.90
2018-10-01T14:11:04.560Z,99.60
2018-10-01T14:13:32.371Z,99.80
2018-10-01T14:16:00.016Z,99.90
2018-10-01T14:18:27.731Z,99.90
2018-10-01T14:20:55.464Z,99.90
2018-10-01T14:23:23.259Z,99.90
2018-10-01T14:25:50.972Z,99.90
2018-10-01T14:28:18.636Z,99.90
2018-10-01T14:30:46.288Z,99.90
2018-10-01T14:35:48.112Z,97.50
2018-10-01T14:38:15.860Z,94.10
2018-10-01T14:40:43.504Z,90.30
2018-10-01T14:43:11.225Z,83.20
2018-10-01T14:45:38.824Z,78.30
2018-10-01T14:48:06.530Z,79.30
2018-10-01T14:50:34.168Z,80.00
2018-10-01T14:53:01.869Z,78.20
2018-10-01T14:57:56.836Z,81.70
2018-10-01T15:00:24.698Z,83.20
2018-10-01T15:02:52.296Z,84.70
2018-10-01T15:05:19.807Z,84.70
2018-10-01T15:07:48.077Z,82.70
2018-10-01T15:10:15.720Z,80.30
2018-10-01T15:12:57.824Z,78.20
2018-10-01T15:15:25.472Z,74.00
2018-10-01T15:17:53.160Z,69.60
2018-10-01T15:20:21.903Z,72.60
2018-10-01T15:22:49.691Z,73.00
2018-10-01T15:25:17.364Z,74.70
2018-10-01T15:27:45.002Z,76.20
2018-10-01T15:30:12.739Z,82.80
2018-10-01T15:32:40.340Z,82.80
2018-10-01T15:35:08.081Z,83.90
2018-10-01T15:37:35.747Z,83.00
2018-10-01T15:40:03.396Z,84.90
2018-10-01T15:42:31.120Z,86.60
2018-10-01T15:44:58.840Z,89.20
2018-10-01T15:47:26.532Z,91.50
2018-10-01T15:49:54.244Z,93.10
2018-10-01T15:52:22.008Z,94.30
2018-10-01T15:54:49.724Z,95.10
2018-10-01T15:57:17.488Z,95.80
2018-10-01T15:59:45.185Z,95.90
2018-10-01T16:02:21.599Z,95.80
2018-10-01T16:04:49.458Z,96.90
2018-10-01T16:07:17.136Z,97.10
2018-10-01T16:09:44.802Z,98.00
2018-10-01T16:12:20.832Z,99.00
2018-10-01T16:14:48.575Z,99.80
2018-10-01T16:17:16.648Z,99.90
2018-10-01T16:19:44.312Z,99.90
2018-10-01T16:24:45.008Z,99.90
2018-10-01T16:27:12.636Z,99.90
2018-10-01T16:29:40.276Z,99.90
2018-10-01T16:32:08.032Z,99.90
2018-10-01T16:34:35.676Z,99.90
2018-10-01T16:37:03.368Z,99.90
2018-10-01T16:39:31.055Z,99.90
2018-10-01T16:41:59.827Z,99.90
2018-10-01T16:47:00.620Z,99.90
2018-10-01T16:49:28.262Z,99.90
2018-10-01T16:51:55.915Z,99.90
2018-10-01T16:54:23.572Z,99.90
2018-10-01T16:56:51.208Z,99.90
2018-10-01T16:59:18.893Z,99.90
2018-10-01T17:01:48.172Z,99.90
2018-10-01T17:04:15.953Z,99.90
2018-10-01T17:06:43.672Z,99.90
2018-10-01T17:09:11.399Z,99.90
2018-10-01T17:11:43.286Z,99.90
2018-10-01T17:14:10.962Z,99.90
2018-10-01T17:16:38.632Z,99.90
2018-10-01T17:19:06.304Z,99.90
2018-10-01T17:21:34.019Z,99.90
2018-10-01T17:24:01.544Z,99.90
2018-10-01T17:26:29.148Z,99.90
2018-10-01T17:28:56.704Z,99.90
2018-10-01T17:31:24.239Z,99.90
2018-10-01T17:33:51.863Z,99.90
2018-10-01T17:36:19.385Z,99.90
2018-10-01T17:38:46.980Z,99.90
2018-10-01T17:41:16.563Z,99.90
2018-10-01T17:43:44.196Z,99.90
2018-10-01T17:46:11.767Z,99.90
2018-10-01T17:48:39.484Z,99.90
2018-10-01T17:51:07.287Z,99.90
2018-10-01T17:53:34.989Z,99.90
2018-10-01T17:56:02.691Z,99.90
2018-10-01T17:58:30.322Z,99.90
2018-10-01T18:00:59.004Z,99.90
2018-10-01T18:03:26.711Z,99.90
2018-10-01T18:05:54.382Z,99.90
2018-10-01T18:08:22.036Z,99.90
2018-10-01T18:10:49.801Z,99.90
2018-10-01T18:13:17.423Z,99.90
2018-10-01T18:15:44.991Z,99.90
2018-10-01T18:18:12.564Z,99.90
2018-10-01T18:20:40.119Z,99.90
2018-10-01T18:23:07.679Z,99.90
2018-10-01T18:25:35.216Z,99.90
2018-10-01T18:28:02.808Z,99.90
2018-10-01T18:30:30.416Z,99.90
2018-10-01T18:32:57.992Z,99.90
2018-10-01T18:35:25.536Z,99.90
2018-10-01T18:37:53.073Z,99.90
2018-10-01T18:40:20.724Z,99.90
2018-10-01T18:42:49.532Z,99.90
2018-10-01T18:45:17.177Z,99.90
2018-10-01T18:47:45.198Z,99.90
2018-10-01T18:50:12.849Z,99.90
2018-10-01T18:52:40.599Z,99.90
2018-10-01T18:55:08.283Z,99.90
2018-10-01T18:57:35.916Z,99.90
2018-10-01T19:00:03.463Z,99.90
2018-10-01T19:02:31.060Z,99.90
2018-10-01T19:04:58.668Z,99.90
2018-10-01T19:07:26.261Z,99.90
2018-10-01T19:09:53.813Z,99.90
2018-10-01T19:12:21.413Z,99.90
2018-10-01T19:14:48.974Z,99.90
2018-10-01T19:17:16.459Z,99.90
2018-10-01T19:19:44.019Z,99.90
2018-10-01T19:22:11.660Z,99.90
2018-10-01T19:24:39.172Z,99.90
2018-10-01T19:27:06.736Z,99.90
2018-10-01T19:29:34.214Z,99.90
2018-10-01T19:32:01.858Z,99.90
2018-10-01T19:34:29.403Z,99.90
2018-10-01T19:36:57.110Z,99.90
2018-10-01T19:39:24.710Z,99.90
2018-10-01T19:41:52.265Z,99.90
2018-10-01T19:44:26.454Z,99.90
2018-10-01T19:46:54.052Z,99.90
2018-10-01T19:49:21.566Z,99.90
2018-10-01T19:51:54.371Z,99.90
2018-10-01T19:54:21.930Z,99.90
2018-10-01T19:56:49.647Z,99.90
2018-10-01T19:59:17.170Z,99.90
2018-10-01T20:01:44.956Z,99.90
2018-10-01T20:04:12.512Z,99.90
2018-10-01T20:06:40.028Z,99.90
2018-10-01T20:09:08.640Z,99.90
2018-10-01T20:11:40.511Z,99.90
2018-10-01T20:14:08.088Z,99.90
2018-10-01T20:16:35.682Z,99.90
2018-10-01T20:19:03.212Z,99.90
2018-10-01T20:21:31.030Z,99.90
2018-10-01T20:23:58.675Z,99.90
2018-10-01T20:26:26.209Z,99.90
2018-10-01T20:28:54.096Z,99.90
2018-10-01T20:31:22.447Z,99.90
2018-10-01T20:33:50.012Z,99.90
2018-10-01T20:36:17.599Z,99.90
2018-10-01T20:38:45.093Z,99.90
2018-10-01T20:41:19.844Z,99.90
2018-10-01T20:43:47.388Z,99.90
2018-10-01T20:46:14.980Z,99.90
2018-10-01T20:48:42.544Z,99.90
2018-10-01T20:51:17.308Z,99.90
2018-10-01T20:53:45.057Z,99.90
2018-10-01T20:56:12.585Z,99.90
2018-10-01T20:58:40.206Z,99.90
2018-10-01T21:01:08.056Z,99.90
2018-10-01T21:03:35.587Z,99.90
2018-10-01T21:06:03.162Z,99.90
2018-10-01T21:08:30.727Z,99.90
2018-10-01T21:11:05.251Z,99.90
2018-10-01T21:16:06.916Z,99.90
2018-10-01T21:18:34.481Z,99.90
2018-10-01T21:21:03.147Z,99.90
2018-10-01T21:23:30.692Z,99.90
2018-10-01T21:25:58.287Z,99.90
2018-10-01T21:28:25.900Z,99.90
2018-10-01T21:30:53.452Z,99.90
2018-10-01T21:33:21.076Z,99.90
2018-10-01T21:35:48.595Z,99.90
2018-10-01T21:38:16.138Z,99.90
2018-10-01T21:40:43.683Z,99.90
2018-10-01T21:43:11.193Z,99.90
2018-10-01T21:45:38.788Z,99.90
2018-10-01T21:48:06.456Z,99.90
2018-10-01T21:50:34.136Z,99.90
2018-10-01T21:53:01.834Z,99.90
2018-10-01T21:55:29.569Z,99.90
2018-10-01T21:57:57.212Z,99.90
2018-10-01T22:00:24.884Z,99.90
2018-10-01T22:02:52.641Z,99.90
2018-10-01T22:05:20.316Z,99.90
2018-10-01T22:07:48.024Z,99.90
2018-10-01T22:10:15.688Z,99.90
2018-10-01T22:12:43.435Z,99.90
2018-10-01T22:15:11.077Z,99.90
2018-10-01T22:17:38.765Z,99.90
2018-10-01T22:20:06.444Z,99.90
2018-10-01T22:22:38.562Z,99.90
2018-10-01T22:25:06.236Z,99.90
2018-10-01T22:27:33.840Z,99.90
2018-10-01T22:30:01.380Z,99.90
2018-10-01T22:32:43.288Z,99.90
2018-10-01T22:35:10.863Z,99.90
2018-10-01T22:37:38.402Z,99.90
2018-10-01T22:40:06.112Z,99.90
2018-10-01T22:42:33.739Z,99.90
2018-10-01T22:45:01.289Z,99.90
2018-10-01T22:47:28.807Z,99.90
2018-10-01T22:52:27.462Z,99.90
2018-10-01T22:54:55.007Z,99.90
2018-10-01T22:57:22.535Z,99.90
2018-10-01T22:59:50.086Z,99.90
2018-10-01T23:02:31.532Z,99.90
2018-10-01T23:04:59.076Z,99.90
2018-10-01T23:07:26.652Z,99.90
2018-10-01T23:09:54.198Z,99.90
2018-10-01T23:12:21.755Z,99.90
2018-10-01T23:14:49.443Z,99.90
2018-10-01T23:17:17.031Z,99.90
2018-10-01T23:19:44.604Z,99.90
2018-10-01T23:22:15.627Z,99.90
2018-10-01T23:24:43.204Z,99.90
2018-10-01T23:27:10.775Z,99.90
2018-10-01T23:29:38.311Z,99.90
2018-10-01T23:32:10.552Z,99.90
2018-10-01T23:34:38.028Z,99.90
2018-10-01T23:37:05.577Z,99.90
2018-10-01T23:39:33.124Z,99.90
2018-10-01T23:42:00.727Z,99.90
2018-10-01T23:44:28.288Z,99.90
2018-10-01T23:46:55.833Z,99.90
2018-10-01T23:49:23.456Z,99.90
2018-10-01T23:51:51.220Z,99.90
2018-10-01T23:56:46.724Z,99.90
2018-10-01T23:59:14.450Z,99.90
